sensor_id;sensor_type;location;lat;lon;timestamp;P1;durP1;ratioP1;P2;durP2;ratioP2
74465;SDS011;62916;50.044;15.938;2023-04-30T00:01:40;2.50;;;2.30;;
74465;SDS011;62916;50.044;15.938;2023-04-30T00:04:10;4.20;;;2.50;;
74465;SDS011;62916;50.044;15.938;2023-04-30T00:06:41;2.80;;;2.10;;
74465;SDS011;62916;50.044;15.938;2023-04-30T00:09:12;2.70;;;1.90;;
74465;SDS011;62916;50.044;15.938;2023-04-30T00:11:43;2.40;;;2.20;;
74465;SDS011;62916;50.044;15.938;2023-04-30T00:14:14;3.30;;;2.40;;
74465;SDS011;62916;50.044;15.938;2023-04-30T00:16:45;2.40;;;2.20;;
74465;SDS011;62916;50.044;15.938;2023-04-30T00:19:16;2.30;;;2.00;;
74465;SDS011;62916;50.044;15.938;2023-04-30T00:21:47;3.50;;;2.40;;
74465;SDS011;62916;50.044;15.938;2023-04-30T00:24:18;2.60;;;2.30;;
74465;SDS011;62916;50.044;15.938;2023-04-30T00:26:48;2.70;;;2.30;;
74465;SDS011;62916;50.044;15.938;2023-04-30T00:29:19;2.30;;;2.10;;
74465;SDS011;62916;50.044;15.938;2023-04-30T00:31:50;2.80;;;2.20;;
74465;SDS011;62916;50.044;15.938;2023-04-30T00:34:20;2.70;;;2.40;;
74465;SDS011;62916;50.044;15.938;2023-04-30T00:36:51;2.80;;;2.40;;
74465;SDS011;62916;50.044;15.938;2023-04-30T00:39:23;2.40;;;2.20;;
74465;SDS011;62916;50.044;15.938;2023-04-30T00:41:54;2.40;;;2.20;;
74465;SDS011;62916;50.044;15.938;2023-04-30T00:44:25;2.40;;;2.20;;
74465;SDS011;62916;50.044;15.938;2023-04-30T00:46:56;2.70;;;2.40;;
74465;SDS011;62916;50.044;15.938;2023-04-30T00:49:27;2.90;;;2.40;;
74465;SDS011;62916;50.044;15.938;2023-04-30T00:51:58;2.80;;;2.10;;
74465;SDS011;62916;50.044;15.938;2023-04-30T00:54:29;2.40;;;2.20;;
74465;SDS011;62916;50.044;15.938;2023-04-30T00:57:00;2.30;;;2.10;;
74465;SDS011;62916;50.044;15.938;2023-04-30T00:59:33;2.50;;;2.30;;
74465;SDS011;62916;50.044;15.938;2023-04-30T01:02:04;2.70;;;2.20;;
74465;SDS011;62916;50.044;15.938;2023-04-30T01:04:36;2.70;;;2.30;;
74465;SDS011;62916;50.044;15.938;2023-04-30T01:07:07;3.00;;;2.60;;
74465;SDS011;62916;50.044;15.938;2023-04-30T01:09:37;2.40;;;2.20;;
74465;SDS011;62916;50.044;15.938;2023-04-30T01:12:11;2.80;;;2.30;;
74465;SDS011;62916;50.044;15.938;2023-04-30T01:14:51;2.50;;;2.20;;
74465;SDS011;62916;50.044;15.938;2023-04-30T01:17:28;2.30;;;2.10;;
74465;SDS011;62916;50.044;15.938;2023-04-30T01:20:03;2.40;;;2.20;;
74465;SDS011;62916;50.044;15.938;2023-04-30T01:22:44;2.90;;;2.50;;
74465;SDS011;62916;50.044;15.938;2023-04-30T01:25:34;2.70;;;2.50;;
74465;SDS011;62916;50.044;15.938;2023-04-30T01:28:13;2.30;;;1.90;;
74465;SDS011;62916;50.044;15.938;2023-04-30T01:30:46;2.30;;;2.10;;
74465;SDS011;62916;50.044;15.938;2023-04-30T01:33:17;2.90;;;2.20;;
74465;SDS011;62916;50.044;15.938;2023-04-30T01:35:57;3.10;;;2.50;;
74465;SDS011;62916;50.044;15.938;2023-04-30T01:38:45;3.60;;;2.60;;
74465;SDS011;62916;50.044;15.938;2023-04-30T01:41:27;2.90;;;2.60;;
74465;SDS011;62916;50.044;15.938;2023-04-30T01:44:05;2.50;;;2.30;;
74465;SDS011;62916;50.044;15.938;2023-04-30T01:46:48;2.70;;;2.30;;
74465;SDS011;62916;50.044;15.938;2023-04-30T01:49:29;2.80;;;2.40;;
74465;SDS011;62916;50.044;15.938;2023-04-30T01:52:10;2.70;;;2.40;;
74465;SDS011;62916;50.044;15.938;2023-04-30T01:54:50;2.90;;;2.20;;
74465;SDS011;62916;50.044;15.938;2023-04-30T01:57:27;3.30;;;3.00;;
74465;SDS011;62916;50.044;15.938;2023-04-30T02:00:00;3.00;;;2.20;;
74465;SDS011;62916;50.044;15.938;2023-04-30T02:02:35;3.80;;;2.70;;
74465;SDS011;62916;50.044;15.938;2023-04-30T02:05:07;2.80;;;2.40;;
74465;SDS011;62916;50.044;15.938;2023-04-30T02:07:39;2.30;;;2.10;;
74465;SDS011;62916;50.044;15.938;2023-04-30T02:10:11;2.40;;;2.20;;
74465;SDS011;62916;50.044;15.938;2023-04-30T02:12:43;2.80;;;2.40;;
74465;SDS011;62916;50.044;15.938;2023-04-30T02:15:14;3.20;;;2.80;;
74465;SDS011;62916;50.044;15.938;2023-04-30T02:17:45;2.60;;;2.10;;
74465;SDS011;62916;50.044;15.938;2023-04-30T02:20:16;2.60;;;2.40;;
74465;SDS011;62916;50.044;15.938;2023-04-30T02:22:48;2.50;;;2.30;;
74465;SDS011;62916;50.044;15.938;2023-04-30T02:25:19;3.10;;;2.60;;
74465;SDS011;62916;50.044;15.938;2023-04-30T02:27:50;2.70;;;2.50;;
74465;SDS011;62916;50.044;15.938;2023-04-30T02:30:21;2.60;;;2.40;;
74465;SDS011;62916;50.044;15.938;2023-04-30T02:32:51;2.40;;;2.20;;
74465;SDS011;62916;50.044;15.938;2023-04-30T02:35:22;2.60;;;2.40;;
74465;SDS011;62916;50.044;15.938;2023-04-30T02:37:53;2.80;;;2.50;;
74465;SDS011;62916;50.044;15.938;2023-04-30T02:40:24;2.80;;;2.50;;
74465;SDS011;62916;50.044;15.938;2023-04-30T02:42:55;3.20;;;2.40;;
74465;SDS011;62916;50.044;15.938;2023-04-30T02:45:28;2.80;;;2.60;;
74465;SDS011;62916;50.044;15.938;2023-04-30T02:48:00;3.10;;;2.80;;
74465;SDS011;62916;50.044;15.938;2023-04-30T02:50:31;3.20;;;2.50;;
74465;SDS011;62916;50.044;15.938;2023-04-30T02:53:02;2.90;;;2.60;;
74465;SDS011;62916;50.044;15.938;2023-04-30T02:55:33;3.20;;;2.90;;
74465;SDS011;62916;50.044;15.938;2023-04-30T02:58:03;3.00;;;2.70;;
74465;SDS011;62916;50.044;15.938;2023-04-30T03:00:34;3.20;;;2.20;;
74465;SDS011;62916;50.044;15.938;2023-04-30T03:03:05;3.10;;;2.70;;
74465;SDS011;62916;50.044;15.938;2023-04-30T03:05:36;2.40;;;2.10;;
74465;SDS011;62916;50.044;15.938;2023-04-30T03:08:07;3.00;;;2.80;;
74465;SDS011;62916;50.044;15.938;2023-04-30T03:10:38;2.70;;;2.40;;
74465;SDS011;62916;50.044;15.938;2023-04-30T03:13:09;3.20;;;2.90;;
74465;SDS011;62916;50.044;15.938;2023-04-30T03:15:40;2.80;;;2.60;;
74465;SDS011;62916;50.044;15.938;2023-04-30T03:18:10;2.60;;;2.40;;
74465;SDS011;62916;50.044;15.938;2023-04-30T03:20:41;2.80;;;2.60;;
74465;SDS011;62916;50.044;15.938;2023-04-30T03:23:12;5.00;;;3.40;;
74465;SDS011;62916;50.044;15.938;2023-04-30T03:25:42;2.90;;;2.60;;
74465;SDS011;62916;50.044;15.938;2023-04-30T03:28:14;4.20;;;3.20;;
74465;SDS011;62916;50.044;15.938;2023-04-30T03:30:45;3.00;;;2.40;;
74465;SDS011;62916;50.044;15.938;2023-04-30T03:33:16;4.70;;;2.70;;
74465;SDS011;62916;50.044;15.938;2023-04-30T03:35:47;3.50;;;2.70;;
74465;SDS011;62916;50.044;15.938;2023-04-30T03:38:18;2.90;;;2.60;;
74465;SDS011;62916;50.044;15.938;2023-04-30T03:40:49;3.70;;;3.20;;
74465;SDS011;62916;50.044;15.938;2023-04-30T03:43:20;3.00;;;2.50;;
74465;SDS011;62916;50.044;15.938;2023-04-30T03:45:51;3.00;;;2.60;;
74465;SDS011;62916;50.044;15.938;2023-04-30T03:48:22;3.60;;;2.40;;
74465;SDS011;62916;50.044;15.938;2023-04-30T03:50:52;2.70;;;2.50;;
74465;SDS011;62916;50.044;15.938;2023-04-30T03:53:23;4.80;;;2.60;;
74465;SDS011;62916;50.044;15.938;2023-04-30T03:55:54;2.80;;;2.40;;
74465;SDS011;62916;50.044;15.938;2023-04-30T03:58:25;2.90;;;2.50;;
74465;SDS011;62916;50.044;15.938;2023-04-30T04:00:56;3.20;;;2.40;;
74465;SDS011;62916;50.044;15.938;2023-04-30T04:03:27;10.10;;;2.40;;
74465;SDS011;62916;50.044;15.938;2023-04-30T04:05:59;3.10;;;2.40;;
74465;SDS011;62916;50.044;15.938;2023-04-30T04:08:31;3.20;;;2.40;;
74465;SDS011;62916;50.044;15.938;2023-04-30T04:11:03;3.40;;;3.00;;
74465;SDS011;62916;50.044;15.938;2023-04-30T04:13:34;3.80;;;2.60;;
74465;SDS011;62916;50.044;15.938;2023-04-30T04:16:06;2.70;;;2.40;;
74465;SDS011;62916;50.044;15.938;2023-04-30T04:18:38;3.20;;;2.50;;
74465;SDS011;62916;50.044;15.938;2023-04-30T04:21:08;2.30;;;2.00;;
74465;SDS011;62916;50.044;15.938;2023-04-30T04:23:40;2.70;;;2.30;;
74465;SDS011;62916;50.044;15.938;2023-04-30T04:26:10;2.60;;;2.30;;
74465;SDS011;62916;50.044;15.938;2023-04-30T04:28:41;3.50;;;2.30;;
74465;SDS011;62916;50.044;15.938;2023-04-30T04:31:12;2.80;;;2.40;;
74465;SDS011;62916;50.044;15.938;2023-04-30T04:33:43;2.70;;;2.30;;
74465;SDS011;62916;50.044;15.938;2023-04-30T04:36:14;3.20;;;2.90;;
74465;SDS011;62916;50.044;15.938;2023-04-30T04:38:45;3.50;;;2.80;;
74465;SDS011;62916;50.044;15.938;2023-04-30T04:41:16;3.50;;;2.30;;
74465;SDS011;62916;50.044;15.938;2023-04-30T04:43:47;2.40;;;2.20;;
74465;SDS011;62916;50.044;15.938;2023-04-30T04:46:20;3.00;;;2.40;;
74465;SDS011;62916;50.044;15.938;2023-04-30T04:48:51;3.10;;;2.80;;
74465;SDS011;62916;50.044;15.938;2023-04-30T04:51:22;2.90;;;2.50;;
74465;SDS011;62916;50.044;15.938;2023-04-30T04:53:53;3.20;;;2.70;;
74465;SDS011;62916;50.044;15.938;2023-04-30T04:56:24;4.10;;;3.00;;
74465;SDS011;62916;50.044;15.938;2023-04-30T04:58:55;2.70;;;2.40;;
74465;SDS011;62916;50.044;15.938;2023-04-30T05:01:26;3.50;;;3.20;;
74465;SDS011;62916;50.044;15.938;2023-04-30T05:03:57;3.70;;;2.90;;
74465;SDS011;62916;50.044;15.938;2023-04-30T05:06:28;2.80;;;2.40;;
74465;SDS011;62916;50.044;15.938;2023-04-30T05:08:59;3.00;;;2.80;;
74465;SDS011;62916;50.044;15.938;2023-04-30T05:11:31;2.90;;;2.50;;
74465;SDS011;62916;50.044;15.938;2023-04-30T05:14:02;4.00;;;2.60;;
74465;SDS011;62916;50.044;15.938;2023-04-30T05:16:33;3.00;;;2.20;;
74465;SDS011;62916;50.044;15.938;2023-04-30T05:19:04;3.70;;;2.80;;
74465;SDS011;62916;50.044;15.938;2023-04-30T05:21:36;2.90;;;2.60;;
74465;SDS011;62916;50.044;15.938;2023-04-30T05:24:07;3.50;;;2.70;;
74465;SDS011;62916;50.044;15.938;2023-04-30T05:26:38;4.70;;;3.00;;
74465;SDS011;62916;50.044;15.938;2023-04-30T05:29:09;3.90;;;2.90;;
74465;SDS011;62916;50.044;15.938;2023-04-30T05:31:40;4.10;;;3.20;;
74465;SDS011;62916;50.044;15.938;2023-04-30T05:34:11;4.10;;;3.20;;
74465;SDS011;62916;50.044;15.938;2023-04-30T05:36:42;4.00;;;3.10;;
74465;SDS011;62916;50.044;15.938;2023-04-30T05:39:13;3.30;;;3.00;;
74465;SDS011;62916;50.044;15.938;2023-04-30T05:41:44;4.00;;;3.30;;
74465;SDS011;62916;50.044;15.938;2023-04-30T05:44:15;4.30;;;3.30;;
74465;SDS011;62916;50.044;15.938;2023-04-30T05:46:46;4.20;;;3.20;;
74465;SDS011;62916;50.044;15.938;2023-04-30T05:49:20;4.40;;;3.10;;
74465;SDS011;62916;50.044;15.938;2023-04-30T05:51:50;4.30;;;3.70;;
74465;SDS011;62916;50.044;15.938;2023-04-30T05:54:21;4.30;;;3.00;;
74465;SDS011;62916;50.044;15.938;2023-04-30T05:56:52;3.50;;;3.20;;
74465;SDS011;62916;50.044;15.938;2023-04-30T05:59:23;4.70;;;3.30;;
74465;SDS011;62916;50.044;15.938;2023-04-30T06:01:54;4.00;;;3.50;;
74465;SDS011;62916;50.044;15.938;2023-04-30T06:04:25;4.10;;;2.80;;
74465;SDS011;62916;50.044;15.938;2023-04-30T06:06:56;3.50;;;3.20;;
74465;SDS011;62916;50.044;15.938;2023-04-30T06:09:27;3.60;;;3.20;;
74465;SDS011;62916;50.044;15.938;2023-04-30T06:11:58;3.60;;;3.10;;
74465;SDS011;62916;50.044;15.938;2023-04-30T06:14:30;4.80;;;3.40;;
74465;SDS011;62916;50.044;15.938;2023-04-30T06:17:01;3.70;;;3.40;;
74465;SDS011;62916;50.044;15.938;2023-04-30T06:19:32;3.50;;;3.10;;
74465;SDS011;62916;50.044;15.938;2023-04-30T06:22:05;4.10;;;3.30;;
74465;SDS011;62916;50.044;15.938;2023-04-30T06:24:36;3.10;;;2.80;;
74465;SDS011;62916;50.044;15.938;2023-04-30T06:27:07;3.80;;;3.30;;
74465;SDS011;62916;50.044;15.938;2023-04-30T06:29:38;3.60;;;3.20;;
74465;SDS011;62916;50.044;15.938;2023-04-30T06:32:09;6.90;;;3.60;;
74465;SDS011;62916;50.044;15.938;2023-04-30T06:34:40;4.30;;;3.80;;
74465;SDS011;62916;50.044;15.938;2023-04-30T06:37:11;5.10;;;3.80;;
74465;SDS011;62916;50.044;15.938;2023-04-30T06:39:42;4.80;;;4.00;;
74465;SDS011;62916;50.044;15.938;2023-04-30T06:42:12;4.60;;;4.20;;
74465;SDS011;62916;50.044;15.938;2023-04-30T06:44:43;4.60;;;3.80;;
74465;SDS011;62916;50.044;15.938;2023-04-30T06:47:14;10.30;;;4.90;;
74465;SDS011;62916;50.044;15.938;2023-04-30T06:49:45;7.80;;;4.70;;
74465;SDS011;62916;50.044;15.938;2023-04-30T06:52:16;4.90;;;4.10;;
74465;SDS011;62916;50.044;15.938;2023-04-30T06:54:47;7.70;;;4.50;;
74465;SDS011;62916;50.044;15.938;2023-04-30T06:57:18;7.40;;;4.60;;
74465;SDS011;62916;50.044;15.938;2023-04-30T06:59:49;7.20;;;3.80;;
74465;SDS011;62916;50.044;15.938;2023-04-30T07:02:20;6.20;;;3.90;;
74465;SDS011;62916;50.044;15.938;2023-04-30T07:04:51;5.20;;;4.00;;
74465;SDS011;62916;50.044;15.938;2023-04-30T07:07:22;4.90;;;3.90;;
74465;SDS011;62916;50.044;15.938;2023-04-30T07:09:53;5.80;;;3.60;;
74465;SDS011;62916;50.044;15.938;2023-04-30T07:12:25;4.80;;;4.00;;
74465;SDS011;62916;50.044;15.938;2023-04-30T07:14:56;5.90;;;4.60;;
74465;SDS011;62916;50.044;15.938;2023-04-30T07:17:27;7.50;;;3.80;;
74465;SDS011;62916;50.044;15.938;2023-04-30T07:19:58;5.30;;;4.40;;
74465;SDS011;62916;50.044;15.938;2023-04-30T07:22:29;4.50;;;4.00;;
74465;SDS011;62916;50.044;15.938;2023-04-30T07:25:00;4.60;;;4.20;;
74465;SDS011;62916;50.044;15.938;2023-04-30T07:27:32;5.30;;;4.00;;
74465;SDS011;62916;50.044;15.938;2023-04-30T07:30:03;5.00;;;4.20;;
74465;SDS011;62916;50.044;15.938;2023-04-30T07:32:35;5.50;;;4.30;;
74465;SDS011;62916;50.044;15.938;2023-04-30T07:35:08;4.70;;;3.60;;
74465;SDS011;62916;50.044;15.938;2023-04-30T07:37:39;6.20;;;4.50;;
74465;SDS011;62916;50.044;15.938;2023-04-30T07:40:12;4.20;;;3.70;;
74465;SDS011;62916;50.044;15.938;2023-04-30T07:43:01;5.60;;;4.60;;
74465;SDS011;62916;50.044;15.938;2023-04-30T07:45:32;7.10;;;3.70;;
74465;SDS011;62916;50.044;15.938;2023-04-30T07:48:04;4.40;;;3.90;;
74465;SDS011;62916;50.044;15.938;2023-04-30T07:50:36;5.00;;;3.60;;
74465;SDS011;62916;50.044;15.938;2023-04-30T07:53:06;4.30;;;3.90;;
74465;SDS011;62916;50.044;15.938;2023-04-30T07:55:37;6.00;;;4.40;;
74465;SDS011;62916;50.044;15.938;2023-04-30T07:58:08;6.60;;;4.40;;
74465;SDS011;62916;50.044;15.938;2023-04-30T08:00:39;4.80;;;3.90;;
74465;SDS011;62916;50.044;15.938;2023-04-30T08:03:10;6.40;;;4.00;;
74465;SDS011;62916;50.044;15.938;2023-04-30T08:05:41;5.20;;;4.20;;
74465;SDS011;62916;50.044;15.938;2023-04-30T08:08:13;5.40;;;3.80;;
74465;SDS011;62916;50.044;15.938;2023-04-30T08:10:44;5.80;;;4.20;;
74465;SDS011;62916;50.044;15.938;2023-04-30T08:13:14;5.40;;;3.80;;
74465;SDS011;62916;50.044;15.938;2023-04-30T08:15:47;4.20;;;3.60;;
74465;SDS011;62916;50.044;15.938;2023-04-30T08:18:18;6.00;;;4.50;;
74465;SDS011;62916;50.044;15.938;2023-04-30T08:20:49;5.50;;;4.80;;
74465;SDS011;62916;50.044;15.938;2023-04-30T08:23:20;5.50;;;4.40;;
74465;SDS011;62916;50.044;15.938;2023-04-30T08:25:51;4.80;;;4.20;;
74465;SDS011;62916;50.044;15.938;2023-04-30T08:28:23;5.50;;;4.10;;
74465;SDS011;62916;50.044;15.938;2023-04-30T08:30:54;6.10;;;4.40;;
74465;SDS011;62916;50.044;15.938;2023-04-30T08:33:25;5.00;;;4.40;;
74465;SDS011;62916;50.044;15.938;2023-04-30T08:35:56;4.80;;;3.70;;
74465;SDS011;62916;50.044;15.938;2023-04-30T08:38:28;8.20;;;5.00;;
74465;SDS011;62916;50.044;15.938;2023-04-30T08:41:02;4.30;;;3.80;;
74465;SDS011;62916;50.044;15.938;2023-04-30T08:43:38;4.40;;;3.60;;
74465;SDS011;62916;50.044;15.938;2023-04-30T08:46:11;4.60;;;4.20;;
74465;SDS011;62916;50.044;15.938;2023-04-30T08:48:44;5.80;;;4.60;;
74465;SDS011;62916;50.044;15.938;2023-04-30T08:51:15;8.50;;;4.20;;
74465;SDS011;62916;50.044;15.938;2023-04-30T08:53:47;5.10;;;4.10;;
74465;SDS011;62916;50.044;15.938;2023-04-30T08:56:19;4.70;;;4.30;;
74465;SDS011;62916;50.044;15.938;2023-04-30T08:58:52;4.90;;;3.80;;
74465;SDS011;62916;50.044;15.938;2023-04-30T09:01:23;5.30;;;3.90;;
74465;SDS011;62916;50.044;15.938;2023-04-30T09:03:56;6.30;;;4.00;;
74465;SDS011;62916;50.044;15.938;2023-04-30T09:06:28;6.30;;;4.00;;
74465;SDS011;62916;50.044;15.938;2023-04-30T09:08:59;5.10;;;4.40;;
74465;SDS011;62916;50.044;15.938;2023-04-30T09:11:39;4.60;;;4.20;;
74465;SDS011;62916;50.044;15.938;2023-04-30T09:14:10;6.90;;;4.10;;
74465;SDS011;62916;50.044;15.938;2023-04-30T09:16:45;6.40;;;4.50;;
74465;SDS011;62916;50.044;15.938;2023-04-30T09:19:23;5.10;;;3.80;;
74465;SDS011;62916;50.044;15.938;2023-04-30T09:21:55;5.00;;;3.50;;
74465;SDS011;62916;50.044;15.938;2023-04-30T09:24:26;4.10;;;3.70;;
74465;SDS011;62916;50.044;15.938;2023-04-30T09:27:17;5.30;;;3.90;;
74465;SDS011;62916;50.044;15.938;2023-04-30T09:29:48;5.80;;;4.00;;
74465;SDS011;62916;50.044;15.938;2023-04-30T09:32:20;5.30;;;3.60;;
74465;SDS011;62916;50.044;15.938;2023-04-30T09:34:51;4.80;;;3.70;;
74465;SDS011;62916;50.044;15.938;2023-04-30T09:37:23;4.90;;;3.40;;
74465;SDS011;62916;50.044;15.938;2023-04-30T09:40:07;4.40;;;3.60;;
74465;SDS011;62916;50.044;15.938;2023-04-30T09:42:39;4.00;;;3.60;;
74465;SDS011;62916;50.044;15.938;2023-04-30T09:45:25;5.90;;;3.80;;
74465;SDS011;62916;50.044;15.938;2023-04-30T09:48:06;4.60;;;3.60;;
74465;SDS011;62916;50.044;15.938;2023-04-30T09:50:44;4.50;;;3.40;;
74465;SDS011;62916;50.044;15.938;2023-04-30T09:53:16;4.40;;;3.20;;
74465;SDS011;62916;50.044;15.938;2023-04-30T09:55:48;4.40;;;3.30;;
74465;SDS011;62916;50.044;15.938;2023-04-30T10:00:51;4.00;;;3.20;;
74465;SDS011;62916;50.044;15.938;2023-04-30T10:03:25;4.60;;;3.10;;
74465;SDS011;62916;50.044;15.938;2023-04-30T10:05:57;4.10;;;3.40;;
74465;SDS011;62916;50.044;15.938;2023-04-30T10:08:30;4.40;;;3.70;;
74465;SDS011;62916;50.044;15.938;2023-04-30T10:11:03;5.10;;;3.60;;
74465;SDS011;62916;50.044;15.938;2023-04-30T10:13:37;4.00;;;3.50;;
74465;SDS011;62916;50.044;15.938;2023-04-30T10:16:14;3.70;;;3.00;;
74465;SDS011;62916;50.044;15.938;2023-04-30T10:18:50;4.00;;;3.40;;
74465;SDS011;62916;50.044;15.938;2023-04-30T10:21:23;4.00;;;3.60;;
74465;SDS011;62916;50.044;15.938;2023-04-30T10:23:54;3.80;;;3.30;;
74465;SDS011;62916;50.044;15.938;2023-04-30T10:26:26;3.80;;;3.00;;
74465;SDS011;62916;50.044;15.938;2023-04-30T10:28:58;4.70;;;3.20;;
74465;SDS011;62916;50.044;15.938;2023-04-30T10:31:30;4.20;;;3.00;;
74465;SDS011;62916;50.044;15.938;2023-04-30T10:34:05;3.60;;;3.30;;
74465;SDS011;62916;50.044;15.938;2023-04-30T10:36:44;3.20;;;2.90;;
74465;SDS011;62916;50.044;15.938;2023-04-30T10:39:18;4.60;;;3.30;;
74465;SDS011;62916;50.044;15.938;2023-04-30T10:41:50;4.10;;;3.50;;
74465;SDS011;62916;50.044;15.938;2023-04-30T10:44:29;4.00;;;3.00;;
74465;SDS011;62916;50.044;15.938;2023-04-30T10:47:03;3.70;;;3.30;;
74465;SDS011;62916;50.044;15.938;2023-04-30T10:49:35;3.80;;;3.20;;
74465;SDS011;62916;50.044;15.938;2023-04-30T10:52:09;3.40;;;2.90;;
74465;SDS011;62916;50.044;15.938;2023-04-30T10:54:40;4.00;;;3.30;;
74465;SDS011;62916;50.044;15.938;2023-04-30T10:57:20;3.70;;;3.30;;
74465;SDS011;62916;50.044;15.938;2023-04-30T10:59:52;3.60;;;3.10;;
74465;SDS011;62916;50.044;15.938;2023-04-30T11:02:44;3.70;;;3.00;;
74465;SDS011;62916;50.044;15.938;2023-04-30T11:05:16;4.30;;;3.30;;
74465;SDS011;62916;50.044;15.938;2023-04-30T11:07:49;3.10;;;2.80;;
74465;SDS011;62916;50.044;15.938;2023-04-30T11:10:25;3.50;;;2.50;;
74465;SDS011;62916;50.044;15.938;2023-04-30T11:13:02;3.10;;;2.80;;
74465;SDS011;62916;50.044;15.938;2023-04-30T11:15:40;3.90;;;3.20;;
74465;SDS011;62916;50.044;15.938;2023-04-30T11:18:14;3.30;;;2.80;;
74465;SDS011;62916;50.044;15.938;2023-04-30T11:20:49;3.00;;;2.70;;
74465;SDS011;62916;50.044;15.938;2023-04-30T11:23:22;3.40;;;3.10;;
74465;SDS011;62916;50.044;15.938;2023-04-30T11:26:06;4.30;;;2.70;;
74465;SDS011;62916;50.044;15.938;2023-04-30T11:28:37;3.80;;;3.10;;
74465;SDS011;62916;50.044;15.938;2023-04-30T11:31:18;3.50;;;2.70;;
74465;SDS011;62916;50.044;15.938;2023-04-30T11:33:49;3.80;;;2.80;;
74465;SDS011;62916;50.044;15.938;2023-04-30T11:36:23;2.90;;;2.60;;
74465;SDS011;62916;50.044;15.938;2023-04-30T11:38:58;4.20;;;2.80;;
74465;SDS011;62916;50.044;15.938;2023-04-30T11:41:33;3.00;;;2.70;;
74465;SDS011;62916;50.044;15.938;2023-04-30T11:44:22;7.90;;;3.00;;
74465;SDS011;62916;50.044;15.938;2023-04-30T11:46:54;4.70;;;3.30;;
74465;SDS011;62916;50.044;15.938;2023-04-30T11:49:25;3.80;;;2.80;;
74465;SDS011;62916;50.044;15.938;2023-04-30T11:51:58;7.10;;;2.90;;
74465;SDS011;62916;50.044;15.938;2023-04-30T11:54:31;3.60;;;3.00;;
74465;SDS011;62916;50.044;15.938;2023-04-30T11:57:03;4.80;;;2.80;;
74465;SDS011;62916;50.044;15.938;2023-04-30T11:59:39;4.50;;;2.70;;
74465;SDS011;62916;50.044;15.938;2023-04-30T12:02:13;2.90;;;2.50;;
74465;SDS011;62916;50.044;15.938;2023-04-30T12:04:45;5.70;;;2.50;;
74465;SDS011;62916;50.044;15.938;2023-04-30T12:07:16;4.30;;;2.90;;
74465;SDS011;62916;50.044;15.938;2023-04-30T12:09:53;4.10;;;2.80;;
74465;SDS011;62916;50.044;15.938;2023-04-30T12:12:28;4.10;;;2.90;;
74465;SDS011;62916;50.044;15.938;2023-04-30T12:15:02;3.40;;;2.50;;
74465;SDS011;62916;50.044;15.938;2023-04-30T12:17:41;3.70;;;2.30;;
74465;SDS011;62916;50.044;15.938;2023-04-30T12:20:13;3.00;;;2.70;;
74465;SDS011;62916;50.044;15.938;2023-04-30T12:22:45;2.60;;;2.40;;
74465;SDS011;62916;50.044;15.938;2023-04-30T12:25:17;4.40;;;2.60;;
74465;SDS011;62916;50.044;15.938;2023-04-30T12:27:49;3.40;;;2.60;;
74465;SDS011;62916;50.044;15.938;2023-04-30T12:30:22;3.20;;;2.80;;
74465;SDS011;62916;50.044;15.938;2023-04-30T12:32:55;3.80;;;2.80;;
74465;SDS011;62916;50.044;15.938;2023-04-30T12:35:28;3.00;;;2.50;;
74465;SDS011;62916;50.044;15.938;2023-04-30T12:38:03;3.40;;;3.00;;
74465;SDS011;62916;50.044;15.938;2023-04-30T12:40:36;3.10;;;2.80;;
74465;SDS011;62916;50.044;15.938;2023-04-30T12:43:08;2.90;;;2.40;;
74465;SDS011;62916;50.044;15.938;2023-04-30T12:45:46;2.90;;;2.60;;
74465;SDS011;62916;50.044;15.938;2023-04-30T12:48:23;2.90;;;2.60;;
74465;SDS011;62916;50.044;15.938;2023-04-30T12:50:55;3.20;;;2.20;;
74465;SDS011;62916;50.044;15.938;2023-04-30T12:53:29;2.70;;;2.50;;
74465;SDS011;62916;50.044;15.938;2023-04-30T12:56:07;3.10;;;2.80;;
74465;SDS011;62916;50.044;15.938;2023-04-30T12:58:42;2.70;;;2.40;;
74465;SDS011;62916;50.044;15.938;2023-04-30T13:01:18;2.70;;;2.40;;
74465;SDS011;62916;50.044;15.938;2023-04-30T13:03:52;2.60;;;2.20;;
74465;SDS011;62916;50.044;15.938;2023-04-30T13:06:23;2.40;;;2.20;;
74465;SDS011;62916;50.044;15.938;2023-04-30T13:08:54;3.40;;;3.00;;
74465;SDS011;62916;50.044;15.938;2023-04-30T13:11:25;2.80;;;2.50;;
74465;SDS011;62916;50.044;15.938;2023-04-30T13:13:56;4.10;;;2.80;;
74465;SDS011;62916;50.044;15.938;2023-04-30T13:16:27;4.00;;;2.30;;
74465;SDS011;62916;50.044;15.938;2023-04-30T13:18:59;4.00;;;2.40;;
74465;SDS011;62916;50.044;15.938;2023-04-30T13:21:31;5.00;;;3.10;;
74465;SDS011;62916;50.044;15.938;2023-04-30T13:24:03;4.10;;;2.60;;
74465;SDS011;62916;50.044;15.938;2023-04-30T13:26:34;5.00;;;2.60;;
74465;SDS011;62916;50.044;15.938;2023-04-30T13:29:05;2.60;;;2.20;;
74465;SDS011;62916;50.044;15.938;2023-04-30T13:31:36;3.90;;;2.40;;
74465;SDS011;62916;50.044;15.938;2023-04-30T13:34:07;3.80;;;2.40;;
74465;SDS011;62916;50.044;15.938;2023-04-30T13:36:38;3.80;;;2.20;;
74465;SDS011;62916;50.044;15.938;2023-04-30T13:39:09;3.20;;;2.60;;
74465;SDS011;62916;50.044;15.938;2023-04-30T13:41:39;3.80;;;2.50;;
74465;SDS011;62916;50.044;15.938;2023-04-30T13:44:10;3.20;;;2.40;;
74465;SDS011;62916;50.044;15.938;2023-04-30T13:46:41;2.70;;;2.20;;
74465;SDS011;62916;50.044;15.938;2023-04-30T13:49:12;2.70;;;2.00;;
74465;SDS011;62916;50.044;15.938;2023-04-30T13:51:43;3.00;;;2.40;;
74465;SDS011;62916;50.044;15.938;2023-04-30T13:54:13;2.70;;;2.20;;
74465;SDS011;62916;50.044;15.938;2023-04-30T13:56:44;3.30;;;2.50;;
74465;SDS011;62916;50.044;15.938;2023-04-30T13:59:15;2.80;;;2.40;;
74465;SDS011;62916;50.044;15.938;2023-04-30T14:01:46;2.70;;;2.50;;
74465;SDS011;62916;50.044;15.938;2023-04-30T14:04:17;3.30;;;2.50;;
74465;SDS011;62916;50.044;15.938;2023-04-30T14:06:48;3.50;;;2.30;;
74465;SDS011;62916;50.044;15.938;2023-04-30T14:09:23;3.40;;;2.30;;
74465;SDS011;62916;50.044;15.938;2023-04-30T14:11:54;3.20;;;2.30;;
74465;SDS011;62916;50.044;15.938;2023-04-30T14:14:25;2.30;;;2.10;;
74465;SDS011;62916;50.044;15.938;2023-04-30T14:16:57;3.40;;;2.20;;
74465;SDS011;62916;50.044;15.938;2023-04-30T14:19:29;2.60;;;2.10;;
74465;SDS011;62916;50.044;15.938;2023-04-30T14:22:00;2.80;;;2.40;;
74465;SDS011;62916;50.044;15.938;2023-04-30T14:24:30;2.80;;;2.20;;
74465;SDS011;62916;50.044;15.938;2023-04-30T14:27:02;2.50;;;2.30;;
74465;SDS011;62916;50.044;15.938;2023-04-30T14:29:33;4.20;;;2.40;;
74465;SDS011;62916;50.044;15.938;2023-04-30T14:32:05;2.30;;;2.10;;
74465;SDS011;62916;50.044;15.938;2023-04-30T14:34:36;2.50;;;2.30;;
74465;SDS011;62916;50.044;15.938;2023-04-30T14:37:07;2.30;;;2.10;;
74465;SDS011;62916;50.044;15.938;2023-04-30T14:39:38;2.60;;;2.40;;
74465;SDS011;62916;50.044;15.938;2023-04-30T14:42:09;2.20;;;2.00;;
74465;SDS011;62916;50.044;15.938;2023-04-30T14:44:40;2.20;;;2.00;;
74465;SDS011;62916;50.044;15.938;2023-04-30T14:47:11;2.60;;;2.20;;
74465;SDS011;62916;50.044;15.938;2023-04-30T14:49:42;1.90;;;1.70;;
74465;SDS011;62916;50.044;15.938;2023-04-30T14:52:12;2.80;;;2.10;;
74465;SDS011;62916;50.044;15.938;2023-04-30T14:54:43;3.00;;;2.50;;
74465;SDS011;62916;50.044;15.938;2023-04-30T14:57:15;2.80;;;2.10;;
74465;SDS011;62916;50.044;15.938;2023-04-30T14:59:47;2.60;;;2.40;;
74465;SDS011;62916;50.044;15.938;2023-04-30T15:02:19;2.30;;;2.00;;
74465;SDS011;62916;50.044;15.938;2023-04-30T15:04:50;2.40;;;2.00;;
74465;SDS011;62916;50.044;15.938;2023-04-30T15:07:21;2.60;;;2.40;;